Time;durP1;ratioP1;P1;durP2;ratioP2;P2;SDS_P1;SDS_P2;PMS_P1;PMS_P2;Temp;Humidity;BMP_temperature;BMP_pressure;BME280_temperature;BME280_humidity;BME280_pressure;Samples;Min_cycle;Max_cycle;Signal;HPM_P1;HPM_P2
2022/08/25 00:01:08;;;;;;;0.00;0.00;;;22.00;82.10;;;;;;4925201;29;20048;-81
2022/08/25 00:03:35;;;;;;;0.00;0.00;;;21.90;82.30;;;;;;4926088;29;20058;-81
2022/08/25 00:06:06;;;;;;;0.00;0.00;;;21.90;82.20;;;;;;4928532;29;20058;-81
2022/08/25 00:08:36;;;;;;;0.00;0.00;;;21.90;82.70;;;;;;4929115;29;20047;-82
2022/08/25 00:11:04;;;;;;;0.00;0.00;;;21.90;82.60;;;;;;4925771;29;20048;-82
2022/08/25 00:13:32;;;;;;;0.00;0.00;;;21.70;82.70;;;;;;4940774;28;20059;-82
2022/08/25 00:15:59;;;;;;;0.00;0.00;;;21.80;83.30;;;;;;4925672;29;20048;-82
2022/08/25 00:18:26;;;;;;;0.00;0.00;;;21.70;83.60;;;;;;4929898;29;20051;-80
2022/08/25 00:20:53;;;;;;;0.00;0.00;;;21.70;83.30;;;;;;4934945;29;20110;-82
2022/08/25 00:23:20;;;;;;;0.00;0.00;;;21.70;83.50;;;;;;4932188;28;20039;-82
2022/08/25 00:25:47;;;;;;;0.00;0.00;;;21.70;84.50;;;;;;4937518;29;20051;-81
2022/08/25 00:28:15;;;;;;;0.00;0.00;;;21.70;84.10;;;;;;4935297;29;20075;-82
2022/08/25 00:30:44;;;;;;;0.00;0.00;;;21.70;83.80;;;;;;4933812;29;20130;-81
2022/08/25 00:33:11;;;;;;;0.00;0.00;;;21.60;83.90;;;;;;4930940;29;20070;-82
2022/08/25 00:35:41;;;;;;;0.00;0.00;;;21.60;83.90;;;;;;4929502;29;20453;-82
2022/08/25 00:38:08;;;;;;;0.00;0.00;;;21.50;84.40;;;;;;4934375;29;20523;-82
2022/08/25 00:40:36;;;;;;;0.00;0.00;;;21.50;84.90;;;;;;4934453;29;20104;-82
2022/08/25 00:43:05;;;;;;;0.00;0.00;;;21.50;85.00;;;;;;4932073;29;20067;-82
2022/08/25 00:45:32;;;;;;;0.00;0.00;;;21.50;84.50;;;;;;4933273;29;20047;-82
2022/08/25 00:48:01;;;;;;;0.00;0.00;;;21.40;85.60;;;;;;4930386;29;20523;-82
2022/08/25 00:50:30;;;;;;;0.00;0.00;;;21.40;85.30;;;;;;4931040;29;20048;-81
2022/08/25 00:53:00;;;;;;;0.00;0.00;;;21.30;84.60;;;;;;4931754;29;20048;-81
2022/08/25 00:55:31;;;;;;;0.00;0.00;;;21.20;84.50;;;;;;4930629;29;20043;-82
2022/08/25 00:58:05;;;;;;;0.00;0.00;;;21.20;85.00;;;;;;4934634;29;20464;-81
2022/08/25 01:00:35;;;;;;;0.00;0.00;;;21.20;85.10;;;;;;4932734;29;20066;-81
2022/08/25 01:03:03;;;;;;;0.00;0.00;;;21.20;85.00;;;;;;4932715;29;20137;-80
2022/08/25 01:05:31;;;;;;;0.00;0.00;;;21.20;85.70;;;;;;4931658;29;20090;-81
2022/08/25 01:08:01;;;;;;;0.00;0.00;;;21.10;85.30;;;;;;4927942;29;20078;-81
2022/08/25 01:10:33;;;;;;;0.00;0.00;;;21.00;86.00;;;;;;4928200;29;20087;-80
2022/08/25 01:13:05;;;;;;;0.00;0.00;;;21.00;86.00;;;;;;4926427;29;20048;-81
2022/08/25 01:15:35;;;;;;;0.00;0.00;;;21.00;86.00;;;;;;4929852;29;20076;-81
2022/08/25 01:18:05;;;;;;;0.00;0.00;;;21.00;86.20;;;;;;4926220;29;20039;-82
2022/08/25 01:20:33;;;;;;;0.00;0.00;;;21.00;86.30;;;;;;4930993;29;20071;-81
2022/08/25 01:23:01;;;;;;;0.00;0.00;;;20.90;86.80;;;;;;4933634;29;20055;-81
2022/08/25 01:25:38;;;;;;;0.00;0.00;;;20.90;87.60;;;;;;4928377;29;20039;-80
2022/08/25 01:28:05;;;;;;;0.00;0.00;;;20.80;87.10;;;;;;4929989;29;20051;-81
2022/08/25 01:30:33;;;;;;;0.00;0.00;;;20.70;88.10;;;;;;4931057;29;20082;-80
2022/08/25 01:33:02;;;;;;;0.00;0.00;;;20.70;88.60;;;;;;4933025;29;20503;-82
2022/08/25 01:35:29;;;;;;;0.00;0.00;;;20.60;89.20;;;;;;4932049;29;20099;-81
2022/08/25 01:37:56;;;;;;;0.00;0.00;;;20.60;89.10;;;;;;4931197;29;20043;-81
2022/08/25 01:40:24;;;;;;;0.00;0.00;;;20.50;89.20;;;;;;4931467;29;20032;-81
2022/08/25 01:43:01;;;;;;;0.00;0.00;;;20.50;89.80;;;;;;4932206;29;20095;-81
2022/08/25 01:45:28;;;;;;;0.00;0.00;;;20.30;90.10;;;;;;4927217;28;20056;-81
2022/08/25 01:47:55;;;;;;;0.00;0.00;;;20.30;90.10;;;;;;4930616;29;20083;-81
2022/08/25 01:50:22;;;;;;;0.00;0.00;;;20.30;90.20;;;;;;4935415;29;20500;-81
2022/08/25 01:52:55;;;;;;;0.00;0.00;;;20.30;90.30;;;;;;4930014;29;20047;-81
2022/08/25 01:55:23;;;;;;;0.00;0.00;;;20.30;90.10;;;;;;4931280;29;20468;-81
2022/08/25 01:57:50;;;;;;;0.00;0.00;;;20.20;90.20;;;;;;4930900;29;20146;-81
2022/08/25 02:00:18;;;;;;;0.00;0.00;;;20.20;90.10;;;;;;4931748;29;20095;-81
2022/08/25 02:02:45;;;;;;;0.00;0.00;;;20.10;90.30;;;;;;4932781;29;20107;-81
2022/08/25 02:05:18;;;;;;;0.00;0.00;;;20.10;90.30;;;;;;4929807;29;20050;-81
2022/08/25 02:07:49;;;;;;;0.00;0.00;;;20.00;90.50;;;;;;4969895;23;20138;-83
2022/08/25 02:10:16;;;;;;;0.00;0.00;;;20.00;90.50;;;;;;4975904;28;20074;-81
2022/08/25 02:12:44;;;;;;;0.00;0.00;;;19.90;90.60;;;;;;4979750;28;20491;-81
2022/08/25 02:15:11;;;;;;;0.00;0.00;;;19.90;90.70;;;;;;4974927;28;20089;-83
2022/08/25 02:17:38;;;;;;;0.00;0.00;;;19.90;90.60;;;;;;4979109;28;20059;-82
2022/08/25 02:20:08;;;;;;;0.00;0.00;;;19.90;90.60;;;;;;4973211;28;20565;-82
2022/08/25 02:22:35;;;;;;;0.00;0.00;;;19.90;90.90;;;;;;4976273;28;20503;-82
2022/08/25 02:25:02;;;;;;;0.00;0.00;;;19.80;91.20;;;;;;4968045;28;20058;-82
2022/08/25 02:27:29;;;;;;;0.00;0.00;;;19.80;91.30;;;;;;4976133;28;20038;-82
2022/08/25 02:29:57;;;;;;;0.10;0.10;;;19.80;91.30;;;;;;4973153;28;20038;-82
2022/08/25 02:32:24;;;;;;;0.00;0.00;;;19.70;91.40;;;;;;4989624;28;20720;-81
2022/08/25 02:34:51;;;;;;;0.00;0.00;;;19.60;91.40;;;;;;4977432;28;20047;-80
2022/08/25 02:37:19;;;;;;;0.00;0.00;;;19.50;91.50;;;;;;4974315;28;20101;-81
2022/08/25 02:39:46;;;;;;;0.00;0.00;;;19.50;91.70;;;;;;4970971;28;20385;-83
2022/08/25 02:42:13;;;;;;;0.00;0.00;;;19.40;91.70;;;;;;4977007;28;20035;-81
2022/08/25 02:44:40;;;;;;;0.00;0.00;;;19.40;91.80;;;;;;4975982;28;20042;-81
2022/08/25 02:47:08;;;;;;;0.00;0.00;;;19.20;91.90;;;;;;4974597;28;20042;-81
2022/08/25 02:49:35;;;;;;;0.00;0.00;;;19.20;92.10;;;;;;4972536;28;20039;-81
2022/08/25 02:52:02;;;;;;;0.00;0.00;;;19.20;92.30;;;;;;4974326;28;20105;-81
2022/08/25 02:54:29;;;;;;;0.00;0.00;;;19.10;92.20;;;;;;4976744;28;20055;-82
2022/08/25 02:56:56;;;;;;;0.00;0.00;;;19.10;92.10;;;;;;4975075;28;20043;-82
2022/08/25 02:59:23;;;;;;;0.00;0.00;;;19.10;92.20;;;;;;4974685;28;20506;-81
2022/08/25 03:01:49;;;;;;;0.00;0.00;;;19.10;92.20;;;;;;4975936;28;20057;-82
2022/08/25 03:04:18;;;;;;;0.00;0.00;;;19.10;92.10;;;;;;4971349;28;20051;-82
2022/08/25 03:06:45;;;;;;;0.00;0.00;;;19.10;92.00;;;;;;4973907;28;20097;-81
2022/08/25 03:09:12;;;;;;;0.00;0.00;;;19.10;92.20;;;;;;4972288;28;20062;-82
2022/08/25 03:11:39;;;;;;;0.00;0.00;;;19.00;92.30;;;;;;4990754;28;20047;-82
2022/08/25 03:14:08;;;;;;;0.00;0.00;;;19.00;92.30;;;;;;4993242;28;20035;-82
2022/08/25 03:16:34;;;;;;;0.00;0.00;;;19.00;92.30;;;;;;4972992;28;20161;-82
2022/08/25 03:19:02;;;;;;;0.00;0.00;;;18.90;92.40;;;;;;4974083;28;20046;-82
2022/08/25 03:21:32;;;;;;;0.00;0.00;;;18.90;92.40;;;;;;4987751;28;20047;-83
2022/08/25 03:23:59;;;;;;;0.00;0.00;;;18.80;92.80;;;;;;4972390;28;20106;-81
2022/08/25 03:29:12;;;;;;;0.00;0.00;;;18.70;92.70;;;;;;4972194;28;20051;-81
2022/08/25 03:31:41;;;;;;;0.00;0.00;;;18.70;92.70;;;;;;4972703;28;20046;-82
2022/08/25 03:34:08;;;;;;;0.00;0.00;;;18.70;92.80;;;;;;4966540;28;20093;-82
2022/08/25 03:36:37;;;;;;;0.00;0.00;;;18.70;92.80;;;;;;4973027;28;20043;-81
2022/08/25 03:39:04;;;;;;;0.00;0.00;;;18.60;92.90;;;;;;4975174;28;20043;-81
2022/08/25 03:41:31;;;;;;;0.00;0.00;;;18.60;93.00;;;;;;4971345;28;20051;-82
2022/08/25 03:43:59;;;;;;;0.00;0.00;;;18.60;93.30;;;;;;4975525;28;20062;-82
2022/08/25 03:46:27;;;;;;;0.00;0.00;;;18.50;93.10;;;;;;4974424;28;20073;-82
2022/08/25 03:48:55;;;;;;;0.00;0.00;;;18.50;93.10;;;;;;4975964;28;20039;-82
2022/08/25 03:51:23;;;;;;;0.00;0.00;;;18.50;93.60;;;;;;4973347;28;20114;-82
2022/08/25 03:53:52;;;;;;;0.00;0.00;;;18.50;93.20;;;;;;4969174;28;20050;-82
2022/08/25 03:56:19;;;;;;;0.00;0.00;;;18.50;93.60;;;;;;4979978;28;20507;-82
2022/08/25 03:58:46;;;;;;;0.00;0.00;;;18.40;93.70;;;;;;4980414;28;20039;-82
2022/08/25 04:01:14;;;;;;;0.00;0.00;;;18.40;93.60;;;;;;4979558;28;20043;-82
2022/08/25 04:03:43;;;;;;;0.00;0.00;;;18.50;93.80;;;;;;4978601;28;20050;-83
2022/08/25 04:06:11;;;;;;;0.00;0.00;;;18.40;93.80;;;;;;4977066;28;20558;-81
2022/08/25 04:08:38;;;;;;;0.00;0.00;;;18.30;94.00;;;;;;4974767;28;20097;-82
2022/08/25 04:11:08;;;;;;;0.00;0.00;;;18.30;94.00;;;;;;4992709;28;20042;-82
2022/08/25 04:13:35;;;;;;;0.00;0.00;;;18.20;94.30;;;;;;4976857;28;20047;-81
2022/08/25 04:16:03;;;;;;;0.00;0.00;;;18.20;94.20;;;;;;4977091;28;20051;-82
2022/08/25 04:18:30;;;;;;;0.00;0.00;;;18.20;94.20;;;;;;4975658;28;20094;-82
2022/08/25 04:21:04;;;;;;;0.00;0.00;;;18.20;94.40;;;;;;4977039;28;20105;-82
2022/08/25 04:23:31;;;;;;;0.00;0.00;;;18.20;94.50;;;;;;4981393;28;20046;-82
2022/08/25 04:25:58;;;;;;;0.00;0.00;;;18.10;94.70;;;;;;4977928;28;20066;-82
2022/08/25 04:28:26;;;;;;;0.00;0.00;;;18.10;94.90;;;;;;4992924;28;20047;-81
2022/08/25 04:30:53;;;;;;;0.00;0.00;;;18.10;94.70;;;;;;4984843;28;20105;-82
2022/08/25 04:33:19;;;;;;;0.00;0.00;;;18.00;95.00;;;;;;4981117;28;20050;-81
2022/08/25 04:35:48;;;;;;;0.00;0.00;;;18.00;95.00;;;;;;4980548;28;20042;-82
2022/08/25 04:38:15;;;;;;;0.00;0.00;;;18.00;95.10;;;;;;4980441;28;20139;-82
2022/08/25 04:40:42;;;;;;;0.03;0.03;;;18.00;95.30;;;;;;4976496;28;20062;-80
2022/08/25 04:43:09;;;;;;;0.00;0.00;;;17.90;95.30;;;;;;4978806;28;20097;-82
2022/08/25 04:45:38;;;;;;;0.00;0.00;;;17.90;95.50;;;;;;4977752;28;20118;-82
2022/08/25 04:48:05;;;;;;;0.00;0.00;;;17.90;95.30;;;;;;4978840;28;20459;-82
2022/08/25 04:50:32;;;;;;;0.00;0.00;;;17.90;95.50;;;;;;4980758;28;20447;-82
2022/08/25 04:52:59;;;;;;;0.00;0.00;;;17.80;95.90;;;;;;4975576;28;20074;-82
2022/08/25 04:55:26;;;;;;;0.00;0.00;;;17.80;95.70;;;;;;4993134;28;20063;-83
2022/08/25 04:57:53;;;;;;;0.00;0.00;;;17.80;96.10;;;;;;4979163;28;20419;-83
2022/08/25 05:00:20;;;;;;;0.00;0.00;;;17.80;96.00;;;;;;4995319;28;20047;-82
2022/08/25 05:02:48;;;;;;;0.00;0.00;;;17.80;96.00;;;;;;4979642;28;20046;-82
2022/08/25 05:05:15;;;;;;;0.00;0.00;;;17.90;96.00;;;;;;4976475;28;20046;-83
2022/08/25 05:07:42;;;;;;;0.00;0.00;;;17.80;96.20;;;;;;4978278;28;20050;-80
2022/08/25 05:10:09;;;;;;;0.00;0.00;;;17.80;96.30;;;;;;4980877;28;20104;-82
2022/08/25 05:12:36;;;;;;;0.00;0.00;;;17.80;96.70;;;;;;4981635;28;20047;-82
2022/08/25 05:15:49;;;;;;;0.00;0.00;;;17.90;96.40;;;;;;4979068;28;20066;-82
2022/08/25 05:17:51;;;;;;;0.00;0.00;;;17.90;96.20;;;;;;4978141;28;20058;-82
2022/08/25 05:20:23;;;;;;;0.00;0.00;;;17.90;96.20;;;;;;4977938;28;20396;-81
2022/08/25 05:22:50;;;;;;;0.00;0.00;;;17.90;96.30;;;;;;4975655;28;20419;-82
2022/08/25 05:25:17;;;;;;;0.00;0.00;;;18.00;96.20;;;;;;4978522;28;20035;-81
2022/08/25 05:27:43;;;;;;;0.10;0.10;;;17.90;96.60;;;;;;4980379;28;20058;-82
2022/08/25 05:30:11;;;;;;;0.00;0.00;;;18.00;96.60;;;;;;4984208;28;20070;-81
2022/08/25 05:32:38;;;;;;;0.00;0.00;;;18.00;96.60;;;;;;4984782;28;20093;-82
2022/08/25 05:35:07;;;;;;;0.00;0.00;;;18.00;96.60;;;;;;4978001;28;20085;-83
2022/08/25 05:37:34;;;;;;;0.00;0.00;;;18.00;96.50;;;;;;4979853;28;20479;-80
2022/08/25 05:40:01;;;;;;;0.00;0.00;;;18.10;96.60;;;;;;4979104;28;20089;-81
2022/08/25 05:42:28;;;;;;;0.00;0.00;;;18.10;96.80;;;;;;4981705;28;20043;-83
2022/08/25 05:44:55;;;;;;;0.00;0.00;;;18.10;96.90;;;;;;4981016;28;20086;-81
2022/08/25 05:47:22;;;;;;;0.00;0.00;;;18.20;96.70;;;;;;4981050;28;20049;-81
2022/08/25 05:49:49;;;;;;;0.00;0.00;;;18.20;96.90;;;;;;4981431;28;20035;-83
2022/08/25 05:52:17;;;;;;;0.00;0.00;;;18.30;97.00;;;;;;4986665;28;20039;-82
2022/08/25 05:54:46;;;;;;;0.00;0.00;;;18.30;96.90;;;;;;4981474;28;20055;-83
2022/08/25 05:57:13;;;;;;;0.00;0.00;;;18.60;96.50;;;;;;4996348;28;20039;-82
2022/08/25 05:59:40;;;;;;;0.00;0.00;;;18.50;96.60;;;;;;4981315;28;20046;-83
2022/08/25 06:04:52;;;;;;;0.00;0.00;;;18.70;96.70;;;;;;4981806;28;20050;-80
2022/08/25 06:07:20;;;;;;;0.00;0.00;;;18.90;97.00;;;;;;4980173;28;20090;-82
2022/08/25 06:09:48;;;;;;;0.00;0.00;;;18.90;97.10;;;;;;4978134;28;20057;-83
2022/08/25 06:12:16;;;;;;;0.00;0.00;;;19.00;96.60;;;;;;4980001;28;20073;-83
2022/08/25 06:14:43;;;;;;;0.00;0.00;;;19.10;96.50;;;;;;4980822;28;20054;-82
2022/08/25 06:17:10;;;;;;;0.00;0.00;;;19.30;96.20;;;;;;4981886;28;20478;-82
2022/08/25 06:19:37;;;;;;;0.00;0.00;;;19.30;96.40;;;;;;4981228;28;20056;-82
2022/08/25 06:22:07;;;;;;;0.00;0.00;;;19.50;96.30;;;;;;4993459;28;20050;-82
2022/08/25 06:24:35;;;;;;;0.10;0.10;;;19.50;96.20;;;;;;4977887;28;20458;-81
2022/08/25 06:27:02;;;;;;;0.00;0.00;;;19.70;95.70;;;;;;4992792;28;20054;-82
2022/08/25 06:29:28;;;;;;;0.00;0.00;;;19.70;95.90;;;;;;4977572;28;20122;-81
2022/08/25 06:31:55;;;;;;;0.00;0.00;;;19.80;95.70;;;;;;4977432;28;20495;-82
2022/08/25 06:34:22;;;;;;;0.00;0.00;;;19.90;95.70;;;;;;4977312;28;20054;-82
2022/08/25 06:36:50;;;;;;;0.00;0.00;;;20.00;95.70;;;;;;4983974;28;20070;-82
2022/08/25 06:39:17;;;;;;;0.00;0.00;;;20.10;95.50;;;;;;4973210;28;20098;-82
2022/08/25 06:41:49;;;;;;;0.00;0.00;;;20.20;95.40;;;;;;4975142;28;20053;-82
2022/08/25 06:44:16;;;;;;;0.00;0.00;;;20.20;95.30;;;;;;4972318;28;20042;-82
2022/08/25 06:46:43;;;;;;;0.00;0.00;;;20.30;95.20;;;;;;4975144;28;20507;-82
2022/08/25 06:49:10;;;;;;;0.00;0.00;;;20.30;95.30;;;;;;4977369;28;20039;-82
2022/08/25 06:51:37;;;;;;;0.00;0.00;;;;;;;;;;4977328;28;20082;-82
2022/08/25 06:54:05;;;;;;;0.00;0.00;;;20.50;94.80;;;;;;4975306;28;20046;-82
2022/08/25 06:56:33;;;;;;;0.00;0.00;;;20.50;94.90;;;;;;4973052;28;20047;-82
2022/08/25 06:59:01;;;;;;;0.00;0.00;;;20.60;94.90;;;;;;4974118;28;20035;-82
2022/08/25 07:01:29;;;;;;;0.00;0.00;;;20.60;95.00;;;;;;4991981;28;20085;-82
2022/08/25 07:04:01;;;;;;;0.00;0.00;;;20.70;94.80;;;;;;4976655;28;20042;-82
2022/08/25 07:06:30;;;;;;;0.00;0.00;;;20.70;94.90;;;;;;4975863;28;20458;-82
2022/08/25 07:08:58;;;;;;;0.00;0.00;;;20.90;94.80;;;;;;4976370;28;20039;-82
2022/08/25 07:11:25;;;;;;;0.00;0.00;;;21.00;94.70;;;;;;4975064;28;20085;-82
2022/08/25 07:13:53;;;;;;;0.00;0.00;;;21.00;94.30;;;;;;4977584;28;20113;-82
2022/08/25 07:16:21;;;;;;;0.00;0.00;;;21.10;94.40;;;;;;4968594;28;20125;-82
2022/08/25 07:18:49;;;;;;;0.00;0.00;;;21.10;94.50;;;;;;4988003;28;20054;-81
2022/08/25 07:21:16;;;;;;;0.00;0.00;;;21.20;94.40;;;;;;4974967;28;20513;-82
2022/08/25 07:23:48;;;;;;;0.00;0.00;;;21.20;94.20;;;;;;4988866;28;20043;-82
2022/08/25 07:26:19;;;;;;;0.00;0.00;;;21.30;94.30;;;;;;4975732;28;20050;-83
2022/08/25 07:29:06;;;;;;;0.00;0.00;;;21.30;94.40;;;;;;4973411;28;20094;-83
2022/08/25 07:31:35;;;;;;;0.00;0.00;;;21.40;94.40;;;;;;4976947;28;20048;-83
2022/08/25 07:36:49;;;;;;;0.00;0.00;;;21.60;94.60;;;;;;4978305;28;20272;-82
2022/08/25 07:39:16;;;;;;;0.00;0.00;;;21.70;94.50;;;;;;4979731;28;20073;-82
2022/08/25 07:41:47;;;;;;;0.00;0.00;;;21.70;94.60;;;;;;4976866;28;20050;-82
2022/08/25 07:44:19;;;;;;;0.00;0.00;;;21.80;94.40;;;;;;4986344;28;20080;-82
2022/08/25 07:46:48;;;;;;;0.00;0.00;;;21.90;94.90;;;;;;4972244;28;20498;-83
2022/08/25 07:49:16;;;;;;;0.00;0.00;;;22.00;94.40;;;;;;4986734;28;20062;-81
2022/08/25 07:51:49;;;;;;;0.00;0.00;;;22.10;94.60;;;;;;4974820;28;20047;-81
2022/08/25 07:54:32;;;;;;;0.00;0.00;;;22.30;94.60;;;;;;4989051;28;20133;-81
2022/08/25 07:57:01;;;;;;;0.00;0.00;;;22.50;94.40;;;;;;4971858;28;20051;-82
2022/08/25 07:59:28;;;;;;;0.00;0.00;;;22.40;94.60;;;;;;4976374;28;20447;-81
2022/08/25 08:01:56;;;;;;;0.00;0.00;;;22.60;94.50;;;;;;4978244;28;20042;-81
2022/08/25 08:04:23;;;;;;;0.00;0.00;;;22.60;94.60;;;;;;4975067;28;20102;-79
2022/08/25 08:06:50;;;;;;;0.00;0.00;;;22.70;94.80;;;;;;4974647;28;20042;-82
2022/08/25 08:09:17;;;;;;;0.00;0.00;;;22.80;94.50;;;;;;5426901;23;20108;-81
2022/08/25 08:11:44;;;;;;;0.00;0.00;;;22.90;94.30;;;;;;4923893;29;20107;-81
2022/08/25 08:14:20;;;;;;;0.00;0.00;;;23.00;94.60;;;;;;4911076;29;20063;-82
2022/08/25 08:16:47;;;;;;;0.00;0.00;;;23.00;94.10;;;;;;4907143;29;20462;-80
2022/08/25 08:19:15;;;;;;;0.00;0.00;;;23.00;94.30;;;;;;4924809;29;20476;-82
2022/08/25 08:21:42;;;;;;;0.00;0.00;;;23.20;94.10;;;;;;4920705;29;20035;-80
2022/08/25 08:24:09;;;;;;;0.00;0.00;;;23.30;93.90;;;;;;4929165;29;20036;-82
2022/08/25 08:26:56;;;;;;;0.00;0.00;;;23.30;94.10;;;;;;4929035;29;20052;-82
2022/08/25 08:29:25;;;;;;;0.00;0.00;;;23.40;93.80;;;;;;4926119;29;20036;-81
2022/08/25 08:31:52;;;;;;;0.00;0.00;;;23.50;93.90;;;;;;4945393;28;20099;-81
2022/08/25 08:34:22;;;;;;;0.00;0.00;;;23.60;93.90;;;;;;4928598;29;20508;-81
2022/08/25 08:36:53;;;;;;;0.00;0.00;;;23.70;94.00;;;;;;4929511;29;20111;-81
2022/08/25 08:39:20;;;;;;;0.00;0.00;;;23.70;93.70;;;;;;4926903;29;20047;-81
2022/08/25 08:42:17;;;;;;;0.00;0.00;;;23.80;93.80;;;;;;4946752;28;20035;-81
2022/08/25 08:45:08;;;;;;;0.00;0.00;;;23.90;93.90;;;;;;4930592;29;20047;-82
2022/08/25 08:48:09;;;;;;;0.00;0.00;;;24.00;94.50;;;;;;4948182;28;20047;-80
2022/08/25 08:50:46;;;;;;;0.00;0.00;;;24.00;94.50;;;;;;4928938;29;20125;-81
2022/08/25 08:53:20;;;;;;;0.00;0.00;;;24.10;94.30;;;;;;4928575;29;20055;-82
2022/08/25 08:55:50;;;;;;;0.00;0.00;;;24.20;94.30;;;;;;4925138;29;20043;-81
2022/08/25 08:58:20;;;;;;;0.00;0.00;;;24.30;94.20;;;;;;4929516;29;20047;-81
2022/08/25 09:00:55;;;;;;;0.00;0.00;;;24.30;94.40;;;;;;4934759;29;20056;-81
2022/08/25 09:03:30;;;;;;;0.00;0.00;;;24.50;93.80;;;;;;4930445;29;20060;-81
2022/08/25 09:06:01;;;;;;;0.00;0.00;;;24.60;93.90;;;;;;4933081;29;20048;-81
2022/08/25 09:08:30;;;;;;;0.00;0.00;;;24.60;93.60;;;;;;4932167;29;20050;-82
2022/08/25 09:11:02;;;;;;;0.00;0.00;;;24.70;93.60;;;;;;4934259;29;20256;-80
2022/08/25 09:13:40;;;;;;;0.00;0.00;;;24.80;93.40;;;;;;4927976;29;20056;-81
2022/08/25 09:19:13;;;;;;;0.00;0.00;;;24.90;93.60;;;;;;4927729;29;20040;-82
2022/08/25 09:22:00;;;;;;;0.00;0.00;;;25.00;93.60;;;;;;4931065;29;20078;-82
2022/08/25 09:24:40;;;;;;;0.00;0.00;;;25.10;93.40;;;;;;4933112;29;20039;-82
2022/08/25 09:27:15;;;;;;;0.00;0.00;;;25.20;93.20;;;;;;4924949;29;20089;-80
2022/08/25 09:29:57;;;;;;;0.00;0.00;;;25.30;92.90;;;;;;4929578;29;20051;-81
2022/08/25 09:32:25;;;;;;;0.00;0.00;;;25.40;93.20;;;;;;4931652;29;20757;-82
2022/08/25 09:34:58;;;;;;;0.00;0.00;;;25.50;93.00;;;;;;4947211;29;20051;-82
2022/08/25 09:37:26;;;;;;;0.00;0.00;;;25.80;91.90;;;;;;4945032;28;20416;-82
2022/08/25 09:39:54;;;;;;;0.00;0.00;;;25.80;92.20;;;;;;4932679;29;20047;-81
2022/08/25 09:42:48;;;;;;;0.00;0.00;;;25.90;92.30;;;;;;4933030;29;20507;-82
2022/08/25 09:45:28;;;;;;;0.00;0.00;;;26.00;92.30;;;;;;4927419;29;20102;-80
2022/08/25 09:47:55;;;;;;;0.00;0.00;;;26.20;92.00;;;;;;4944379;28;20047;-80
2022/08/25 09:50:22;;;;;;;0.00;0.00;;;26.20;90.90;;;;;;4931746;29;20493;-80
2022/08/25 09:52:49;;;;;;;0.00;0.00;;;26.30;91.40;;;;;;4931157;29;20047;-80
2022/08/25 09:55:28;;;;;;;0.00;0.00;;;26.30;91.30;;;;;;4933722;29;20044;-82
2022/08/25 09:58:00;;;;;;;0.00;0.00;;;26.40;91.60;;;;;;4930615;29;20067;-82
2022/08/25 10:00:35;;;;;;;0.00;0.00;;;26.50;90.80;;;;;;4927763;29;20720;-80
2022/08/25 10:03:10;;;;;;;0.00;0.00;;;26.70;90.70;;;;;;4937017;29;20051;-81
2022/08/25 10:05:58;;;;;;;0.00;0.00;;;26.80;90.50;;;;;;4929623;29;20048;-80
2022/08/25 10:08:31;;;;;;;0.00;0.00;;;26.80;90.80;;;;;;4926518;29;20527;-82
2022/08/25 10:11:00;;;;;;;0.00;0.00;;;26.80;90.20;;;;;;4930345;29;20087;-80
2022/08/25 10:13:41;;;;;;;0.00;0.00;;;26.90;90.60;;;;;;4920417;29;20056;-82
2022/08/25 10:16:18;;;;;;;0.00;0.00;;;26.90;90.20;;;;;;4938306;28;20044;-80
2022/08/25 10:19:01;;;;;;;0.00;0.00;;;27.00;90.20;;;;;;4927528;29;20043;-82
2022/08/25 10:21:27;;;;;;;0.00;0.00;;;27.00;89.50;;;;;;4922808;29;20044;-82
2022/08/25 10:23:55;;;;;;;0.00;0.00;;;27.00;89.90;;;;;;4927016;29;20397;-80
2022/08/25 10:26:29;;;;;;;0.00;0.00;;;27.10;89.90;;;;;;4923688;29;20043;-81
2022/08/25 10:29:14;;;;;;;0.00;0.00;;;27.10;89.90;;;;;;4923362;29;20043;-79
2022/08/25 10:31:47;;;;;;;0.00;0.00;;;27.20;90.10;;;;;;4941475;28;20085;-80
2022/08/25 10:34:30;;;;;;;0.00;0.00;;;27.40;90.00;;;;;;4923874;29;20036;-81
2022/08/25 10:37:05;;;;;;;0.00;0.00;;;27.50;89.40;;;;;;4929952;29;20102;-81
2022/08/25 10:39:39;;;;;;;0.00;0.00;;;27.50;89.30;;;;;;4928427;29;20492;-80
2022/08/25 10:42:28;;;;;;;0.00;0.00;;;28.60;90.00;;;;;;4928240;29;20039;-81
2022/08/25 10:48:21;;;;;;;0.00;0.00;;;27.70;89.20;;;;;;4929180;29;20083;-81
2022/08/25 10:50:55;;;;;;;0.00;0.00;;;27.80;88.50;;;;;;4932200;29;20043;-81
2022/08/25 10:53:28;;;;;;;0.00;0.00;;;27.80;88.40;;;;;;4925754;29;20563;-82
2022/08/25 10:56:04;;;;;;;0.00;0.00;;;27.90;88.60;;;;;;4920512;29;21021;-81
2022/08/25 10:59:15;;;;;;;0.00;0.00;;;27.90;88.40;;;;;;4928343;29;20048;-81
2022/08/25 11:02:18;;;;;;;0.00;0.00;;;27.90;89.10;;;;;;4901695;29;20064;-82
2022/08/25 11:04:51;;;;;;;0.00;0.00;;;27.90;88.00;;;;;;4945223;28;20039;-81
2022/08/25 11:07:27;;;;;;;0.00;0.00;;;27.70;88.40;;;;;;4929495;29;20051;-80
2022/08/25 11:10:01;;;;;;;0.00;0.00;;;27.70;89.10;;;;;;4923433;29;20048;-82
2022/08/25 11:12:33;;;;;;;0.00;0.00;;;27.70;88.00;;;;;;4938960;28;20694;-82
2022/08/25 11:15:06;;;;;;;0.00;0.00;;;27.70;88.80;;;;;;4927126;29;20048;-81
2022/08/25 11:17:41;;;;;;;0.00;0.00;;;27.90;87.40;;;;;;4929050;29;20051;-80
2022/08/25 11:20:16;;;;;;;0.00;0.00;;;27.80;87.10;;;;;;4931780;29;20047;-81
2022/08/25 11:23:04;;;;;;;0.00;0.00;;;27.70;88.80;;;;;;4931417;29;20544;-81
2022/08/25 11:25:36;;;;;;;0.00;0.00;;;27.70;89.10;;;;;;4931302;29;20044;-82
2022/08/25 11:28:09;;;;;;;0.00;0.00;;;27.80;89.80;;;;;;4922721;29;20480;-82
2022/08/25 11:30:37;;;;;;;0.00;0.00;;;28.00;89.00;;;;;;4926504;29;20540;-81
2022/08/25 11:33:10;;;;;;;;;;;28.10;87.90;;;;;;4929261;29;20071;-83
2022/08/25 11:35:40;;;;;;;0.00;0.00;;;28.10;87.90;;;;;;4929575;29;20391;-81
2022/08/25 11:38:23;;;;;;;0.00;0.00;;;28.30;87.90;;;;;;4922631;28;20051;-79
2022/08/25 11:41:02;;;;;;;0.00;0.00;;;28.60;87.40;;;;;;4929160;29;20072;-82
2022/08/25 11:43:54;;;;;;;0.00;0.00;;;28.70;86.30;;;;;;4943040;28;20043;-83
2022/08/25 11:46:51;;;;;;;0.00;0.00;;;28.80;86.60;;;;;;4926177;29;20060;-81
2022/08/25 11:49:33;;;;;;;0.00;0.00;;;28.90;85.50;;;;;;4926332;29;20068;-80
2022/08/25 11:52:02;;;;;;;0.00;0.00;;;29.10;84.20;;;;;;4924102;29;20493;-82
2022/08/25 11:54:35;;;;;;;0.00;0.00;;;29.10;85.40;;;;;;4929961;29;20083;-82
2022/08/25 11:57:07;;;;;;;0.00;0.00;;;29.20;84.70;;;;;;4926944;29;20051;-81
2022/08/25 12:00:12;;;;;;;0.00;0.00;;;29.30;83.70;;;;;;4924224;29;20401;-78
2022/08/25 12:02:41;;;;;;;0.00;0.00;;;29.30;84.70;;;;;;4938727;28;20468;-81
2022/08/25 12:05:46;;;;;;;0.00;0.00;;;29.40;84.40;;;;;;4925324;29;21339;-79
2022/08/25 12:10:59;;;;;;;0.00;0.00;;;29.40;83.30;;;;;;4930260;29;20408;-78
2022/08/25 12:13:44;;;;;;;0.00;0.00;;;29.60;83.50;;;;;;4945637;28;20048;-80
2022/08/25 12:16:35;;;;;;;0.00;0.00;;;29.70;83.90;;;;;;4929786;29;20047;-80
2022/08/25 12:19:25;;;;;;;0.00;0.00;;;29.80;82.60;;;;;;4931193;29;20095;-79
2022/08/25 12:22:17;;;;;;;0.00;0.00;;;29.80;82.50;;;;;;4935013;29;20044;-80
2022/08/25 12:24:53;;;;;;;0.00;0.00;;;29.70;81.90;;;;;;4947408;28;20056;-78
2022/08/25 12:27:25;;;;;;;0.00;0.00;;;29.60;83.00;;;;;;4937872;29;20039;-79
2022/08/25 12:29:59;;;;;;;0.00;0.00;;;29.50;84.10;;;;;;4933168;29;20059;-81
2022/08/25 12:32:46;;;;;;;0.00;0.00;;;29.40;82.40;;;;;;4938744;29;20035;-80
2022/08/25 12:35:28;;;;;;;0.00;0.00;;;29.30;83.30;;;;;;4930170;29;20516;-80
2022/08/25 12:38:06;;;;;;;0.00;0.00;;;29.50;83.70;;;;;;4947774;28;20040;-80
2022/08/25 12:40:38;;;;;;;0.00;0.00;;;29.70;83.60;;;;;;4932803;29;20051;-79
2022/08/25 12:43:12;;;;;;;0.00;0.00;;;29.80;83.70;;;;;;4946261;28;20051;-80
2022/08/25 12:45:42;;;;;;;0.00;0.00;;;30.20;83.50;;;;;;4935465;29;20564;-81
2022/08/25 12:49:03;;;;;;;0.00;0.00;;;30.40;82.00;;;;;;4951763;28;20046;-81
2022/08/25 12:51:52;;;;;;;0.00;0.00;;;30.60;80.30;;;;;;4932239;29;20036;-78
2022/08/25 12:54:24;;;;;;;0.00;0.00;;;30.70;80.20;;;;;;4932357;29;20055;-79
2022/08/25 12:56:58;;;;;;;0.00;0.00;;;30.70;80.70;;;;;;4936400;29;20056;-80
2022/08/25 12:59:34;;;;;;;0.00;0.00;;;30.70;80.00;;;;;;4932111;29;20044;-80
2022/08/25 13:02:33;;;;;;;0.00;0.00;;;30.70;80.50;;;;;;4936032;29;20040;-80
2022/08/25 13:05:29;;;;;;;0.00;0.00;;;30.60;79.60;;;;;;4931047;29;20520;-80
2022/08/25 13:08:23;;;;;;;0.00;0.00;;;30.70;79.40;;;;;;4932511;29;20048;-79
2022/08/25 13:10:56;;;;;;;0.00;0.00;;;30.70;78.60;;;;;;4949869;28;20075;-81
2022/08/25 13:13:38;;;;;;;0.00;0.00;;;30.60;79.20;;;;;;4937007;29;20484;-81
2022/08/25 13:16:08;;;;;;;0.00;0.00;;;30.50;78.70;;;;;;4948030;29;20044;-80
2022/08/25 13:18:38;;;;;;;0.00;0.00;;;30.50;78.70;;;;;;4935985;29;20052;-80
2022/08/25 13:21:07;;;;;;;;;;;30.60;79.80;;;;;;4935133;29;20044;-78
2022/08/25 13:23:39;;;;;;;0.00;0.00;;;30.50;77.40;;;;;;4934915;29;20426;-81
2022/08/25 13:26:08;;;;;;;0.00;0.00;;;30.50;77.70;;;;;;4935620;29;20035;-81
2022/08/25 13:28:39;;;;;;;0.00;0.00;;;30.40;78.80;;;;;;4932410;29;20055;-80